createdAt,value
2019-01-14T00:00:58.922Z,4.50
2019-01-14T00:03:28.538Z,4.50
2019-01-14T00:05:58.004Z,4.40
2019-01-14T00:08:27.477Z,4.40
2019-01-14T00:10:56.924Z,4.40
2019-01-14T00:13:26.398Z,4.40
2019-01-14T00:15:56.045Z,4.40
2019-01-14T00:18:25.565Z,4.40
2019-01-14T00:20:55.047Z,4.40
2019-01-14T00:23:24.481Z,4.40
2019-01-14T00:25:53.987Z,4.40
2019-01-14T00:28:23.440Z,4.40
2019-01-14T00:30:52.880Z,4.50
2019-01-14T00:33:22.415Z,4.50
2019-01-14T00:35:51.862Z,4.50
2019-01-14T00:38:21.343Z,4.50
2019-01-14T00:40:50.827Z,4.50
2019-01-14T00:43:20.264Z,4.50
2019-01-14T00:45:49.748Z,4.50
2019-01-14T00:48:19.195Z,4.50
2019-01-14T00:50:48.716Z,4.50
2019-01-14T00:53:18.159Z,4.50
2019-01-14T00:55:47.609Z,4.50
2019-01-14T00:58:17.082Z,4.50
2019-01-14T01:00:46.548Z,4.50
2019-01-14T01:03:16.022Z,4.50
2019-01-14T01:05:45.484Z,4.50
2019-01-14T01:08:14.973Z,4.50
2019-01-14T01:10:44.586Z,4.40
2019-01-14T01:13:14.037Z,4.50
2019-01-14T01:15:43.525Z,4.60
2019-01-14T01:18:12.976Z,4.60
2019-01-14T01:20:42.991Z,4.20
2019-01-14T01:23:12.436Z,4.60
2019-01-14T01:25:41.913Z,4.80
2019-01-14T01:28:11.394Z,4.50
2019-01-14T01:30:40.860Z,4.60
2019-01-14T01:33:10.311Z,4.50
2019-01-14T01:35:39.800Z,4.70
2019-01-14T01:38:09.232Z,4.70
2019-01-14T01:40:38.683Z,4.70
2019-01-14T01:43:08.158Z,4.60
2019-01-14T01:45:37.646Z,4.70
2019-01-14T01:48:07.079Z,4.70
2019-01-14T01:50:36.560Z,4.70
2019-01-14T01:53:06.046Z,4.70
2019-01-14T01:55:35.515Z,4.80
2019-01-14T01:58:05.193Z,4.80
2019-01-14T02:00:34.777Z,4.90
2019-01-14T02:03:04.387Z,4.90
2019-01-14T02:05:33.897Z,4.80
2019-01-14T02:08:03.373Z,4.90
2019-01-14T02:10:32.848Z,4.80
2019-01-14T02:13:02.292Z,4.80
2019-01-14T02:15:31.934Z,4.90
2019-01-14T02:18:01.382Z,4.90
2019-01-14T02:20:30.832Z,5.00
2019-01-14T02:23:00.300Z,4.90
2019-01-14T02:25:29.742Z,4.80
2019-01-14T02:27:59.215Z,4.90
2019-01-14T02:30:28.730Z,5.00
2019-01-14T02:32:58.204Z,5.00
2019-01-14T02:35:27.653Z,5.20
2019-01-14T02:37:57.132Z,5.10
2019-01-14T02:40:26.570Z,5.00
2019-01-14T02:42:56.078Z,5.00
2019-01-14T02:45:25.521Z,5.10
2019-01-14T02:47:54.975Z,4.90
2019-01-14T02:50:24.960Z,5.00
2019-01-14T02:52:54.402Z,4.80
2019-01-14T02:55:23.844Z,4.80
2019-01-14T21:20:50.510Z,-1.80
2019-01-14T21:23:19.999Z,-1.70
2019-01-14T21:25:49.460Z,-1.70
2019-01-14T21:28:18.951Z,-1.70
2019-01-14T21:30:48.692Z,-1.80
2019-01-14T21:33:18.144Z,-1.80
2019-01-14T21:35:47.599Z,-1.70
2019-01-14T21:38:18.777Z,-1.70
2019-01-14T21:40:48.250Z,-1.70
2019-01-14T21:43:18.005Z,-1.70
2019-01-14T21:45:47.515Z,-1.60
2019-01-14T21:48:17.540Z,-1.70
2019-01-14T21:50:47.095Z,-1.60
2019-01-14T21:53:16.593Z,-1.60
2019-01-14T21:55:46.045Z,-1.60
2019-01-14T21:58:15.528Z,-1.60
2019-01-14T22:00:44.988Z,-1.50
2019-01-14T22:03:15.636Z,-1.60
2019-01-14T22:05:45.310Z,-1.60
2019-01-14T22:08:14.787Z,-1.60
2019-01-14T22:10:44.259Z,-1.60
2019-01-14T22:13:15.422Z,-1.60
2019-01-14T22:15:44.876Z,-1.50
2019-01-14T22:18:14.366Z,-1.50
2019-01-14T22:20:43.842Z,-1.50
2019-01-14T22:23:13.320Z,-1.50
2019-01-14T22:25:42.812Z,-1.50
2019-01-14T22:28:12.269Z,-1.50
2019-01-14T22:30:41.767Z,-1.50
2019-01-14T22:33:11.219Z,-1.40
2019-01-14T22:35:40.671Z,-1.40
2019-01-14T22:38:10.131Z,-1.30
2019-01-14T22:40:39.582Z,-1.30
2019-01-14T22:43:09.060Z,-1.30
2019-01-14T22:45:38.514Z,-1.20
2019-01-14T22:48:07.996Z,-1.20
2019-01-14T22:50:37.459Z,-1.20
2019-01-14T22:53:06.922Z,-1.10
2019-01-14T22:55:36.395Z,-1.10
2019-01-14T22:58:05.870Z,-1.10
2019-01-14T23:00:59.122Z,-1.10
2019-01-14T23:03:28.569Z,-1.00
2019-01-14T23:05:58.009Z,-0.90
2019-01-14T23:08:27.507Z,-0.90
2019-01-14T23:10:56.962Z,-1.00
2019-01-14T23:13:26.434Z,-0.90
2019-01-14T23:15:56.147Z,-0.90
2019-01-14T23:18:25.617Z,-0.90
2019-01-14T23:20:55.087Z,-0.90
2019-01-14T23:23:24.584Z,-0.90
2019-01-14T23:25:54.041Z,-0.80
2019-01-14T23:28:23.483Z,-0.90
2019-01-14T23:30:52.973Z,-0.80
2019-01-14T23:33:22.538Z,-0.80
2019-01-14T23:35:52.051Z,-0.70
2019-01-14T23:38:21.506Z,-0.70
2019-01-14T23:40:51.061Z,-0.70
2019-01-14T23:43:20.517Z,-0.70
2019-01-14T23:45:49.993Z,-0.60
2019-01-14T23:48:19.520Z,-0.60
2019-01-14T23:50:49.133Z,-0.60
2019-01-14T23:53:18.588Z,-0.60
2019-01-14T23:55:48.093Z,-0.50
2019-01-14T23:58:17.550Z,-0.50
